createdAt,value
2022-10-27T00:00:58.440Z,16.10
2022-10-27T00:03:26.059Z,14.80
2022-10-27T00:05:53.823Z,13.40
2022-10-27T00:08:22.123Z,12.70
2022-10-27T00:11:00.878Z,12.73
2022-10-27T00:13:29.330Z,12.57
2022-10-27T00:16:22.305Z,12.73
2022-10-27T00:18:49.723Z,12.10
2022-10-27T00:21:20.085Z,12.10
2022-10-27T00:23:51.399Z,12.47
2022-10-27T00:26:20.762Z,12.80
2022-10-27T00:28:48.602Z,14.23
2022-10-27T00:31:21.601Z,13.13
2022-10-27T00:33:50.043Z,13.20
2022-10-27T00:36:22.327Z,13.10
2022-10-27T00:38:52.859Z,11.83
2022-10-27T00:41:36.023Z,11.97
2022-10-27T00:44:43.549Z,11.63
2022-10-27T00:47:20.343Z,11.40
2022-10-27T00:50:06.380Z,11.03
2022-10-27T00:52:43.826Z,11.30
2022-10-27T00:55:24.401Z,11.70
2022-10-27T00:57:56.372Z,11.23
2022-10-27T01:00:24.209Z,12.20
2022-10-27T01:02:52.567Z,12.30
2022-10-27T01:05:29.267Z,12.97
2022-10-27T01:08:00.074Z,11.80
2022-10-27T01:10:27.904Z,11.97
2022-10-27T01:12:56.085Z,11.87
2022-10-27T01:15:29.813Z,11.57
2022-10-27T01:18:18.087Z,10.77
2022-10-27T01:21:24.426Z,11.60
2022-10-27T01:23:58.468Z,11.53
2022-10-27T01:26:57.718Z,10.80
2022-10-27T01:30:16.839Z,10.43
2022-10-27T01:33:05.820Z,10.43
2022-10-27T01:35:37.485Z,10.47
2022-10-27T01:38:32.613Z,9.83
2022-10-27T01:41:11.275Z,8.90
2022-10-27T01:43:39.681Z,9.40
2022-10-27T01:46:09.030Z,8.53
2022-10-27T01:48:37.739Z,9.10
2022-10-27T01:51:07.436Z,8.93
2022-10-27T01:53:40.667Z,8.53
2022-10-27T01:56:13.800Z,8.50
2022-10-27T01:58:47.170Z,8.00
2022-10-27T02:01:39.428Z,8.03
2022-10-27T02:04:23.197Z,8.43
2022-10-27T02:07:16.813Z,8.17
2022-10-27T02:09:52.523Z,7.93
2022-10-27T02:12:32.102Z,7.90
2022-10-27T02:15:03.119Z,7.27
2022-10-27T02:17:39.677Z,7.13
2022-10-27T02:20:15.728Z,6.83
2022-10-27T02:22:46.267Z,7.30
2022-10-27T02:25:16.520Z,5.90
2022-10-27T02:27:52.006Z,6.33
2022-10-27T02:30:19.397Z,5.90
2022-10-27T02:32:48.019Z,6.10
2022-10-27T02:35:17.192Z,6.27
2022-10-27T02:37:45.738Z,6.30
2022-10-27T02:40:13.266Z,5.93
2022-10-27T02:42:40.664Z,5.70
2022-10-27T02:45:08.661Z,5.40
2022-10-27T02:47:36.131Z,5.87
2022-10-27T02:50:03.645Z,5.67
2022-10-27T02:52:31.034Z,5.43
2022-10-27T02:54:58.389Z,6.00
2022-10-27T02:57:25.798Z,5.80
2022-10-27T02:59:53.845Z,5.87
2022-10-27T03:02:24.548Z,5.90
2022-10-27T03:04:52.068Z,6.03
2022-10-27T03:07:20.599Z,6.30
2022-10-27T03:09:47.973Z,5.80
2022-10-27T03:12:15.505Z,6.73
2022-10-27T03:14:42.860Z,6.40
2022-10-27T03:17:10.292Z,6.23
2022-10-27T03:19:37.668Z,6.53
2022-10-27T03:22:05.046Z,6.33
2022-10-27T03:24:32.510Z,6.33
2022-10-27T03:26:59.935Z,6.00
2022-10-27T03:29:27.349Z,6.47
2022-10-27T03:31:54.716Z,6.50
2022-10-27T03:34:22.071Z,6.63
2022-10-27T03:36:49.474Z,6.53
2022-10-27T03:39:16.848Z,6.43
2022-10-27T03:41:44.255Z,6.40
2022-10-27T03:44:11.696Z,6.23
2022-10-27T03:46:39.062Z,5.90
2022-10-27T03:49:06.505Z,5.60
2022-10-27T03:51:35.128Z,5.30
2022-10-27T03:54:02.474Z,5.20
2022-10-27T03:56:29.907Z,5.70
2022-10-27T03:58:57.357Z,5.23
2022-10-27T04:01:24.917Z,5.33
2022-10-27T04:03:52.309Z,5.07
2022-10-27T04:06:19.945Z,5.60
2022-10-27T04:08:47.410Z,5.67
2022-10-27T04:11:14.823Z,5.70
2022-10-27T04:13:45.162Z,5.83
2022-10-27T04:16:12.545Z,6.03
2022-10-27T04:18:40.065Z,6.47
2022-10-27T04:21:07.560Z,6.20
2022-10-27T04:23:34.922Z,6.00
2022-10-27T04:26:02.274Z,6.53
2022-10-27T04:28:29.649Z,6.27
2022-10-27T04:30:57.266Z,5.93
2022-10-27T04:33:28.003Z,5.60
2022-10-27T04:35:57.543Z,5.70
2022-10-27T04:38:25.111Z,5.77
2022-10-27T04:40:52.487Z,5.43
2022-10-27T04:43:20.585Z,5.43
2022-10-27T04:45:47.986Z,5.40
2022-10-27T04:48:15.339Z,5.57
2022-10-27T04:50:42.817Z,5.40
2022-10-27T04:53:10.182Z,5.57
2022-10-27T04:55:37.808Z,5.57
2022-10-27T04:58:06.840Z,5.73
2022-10-27T05:00:36.219Z,6.17
2022-10-27T05:03:03.746Z,5.57
2022-10-27T05:05:32.509Z,5.80
2022-10-27T05:08:02.676Z,5.73
2022-10-27T05:10:32.057Z,5.93
2022-10-27T05:12:59.537Z,6.07
2022-10-27T05:15:27.137Z,6.20
2022-10-27T05:17:54.777Z,5.80
2022-10-27T05:20:22.679Z,5.93
2022-10-27T05:22:50.329Z,6.40
2022-10-27T05:25:18.246Z,5.93
2022-10-27T05:27:45.617Z,6.00
2022-10-27T05:30:13.312Z,5.97
2022-10-27T05:32:44.879Z,6.20
2022-10-27T05:35:12.415Z,5.73
2022-10-27T05:37:44.410Z,6.50
2022-10-27T05:40:12.414Z,6.60
2022-10-27T05:42:39.840Z,6.67
2022-10-27T05:45:08.077Z,5.90
2022-10-27T05:47:35.506Z,5.97
2022-10-27T05:50:02.942Z,6.27
2022-10-27T05:52:30.301Z,5.73
2022-10-27T05:54:57.645Z,5.97
2022-10-27T05:57:25.029Z,5.90
2022-10-27T05:59:52.451Z,6.50
2022-10-27T06:02:19.954Z,6.00
2022-10-27T06:04:47.436Z,6.23
2022-10-27T06:07:14.857Z,6.20
2022-10-27T06:09:42.276Z,6.20
2022-10-27T06:12:09.663Z,6.80
2022-10-27T06:14:37.008Z,6.60
2022-10-27T06:17:04.400Z,6.23
2022-10-27T06:19:31.752Z,6.30
2022-10-27T06:21:59.195Z,6.37
2022-10-27T06:24:26.506Z,6.43
2022-10-27T06:26:56.198Z,6.80
2022-10-27T06:29:24.499Z,6.27
2022-10-27T06:31:53.322Z,6.40
2022-10-27T06:34:22.288Z,6.00
2022-10-27T06:36:49.707Z,6.17
2022-10-27T06:39:17.058Z,6.77
2022-10-27T06:41:44.538Z,6.53
2022-10-27T06:44:20.739Z,6.30
2022-10-27T06:46:48.134Z,6.00
2022-10-27T06:49:17.671Z,6.47
2022-10-27T06:51:45.304Z,5.97
2022-10-27T06:54:12.721Z,5.50
2022-10-27T06:56:40.089Z,6.20
2022-10-27T06:59:07.946Z,7.03
2022-10-27T07:01:36.256Z,6.10
2022-10-27T07:04:03.756Z,6.83
2022-10-27T07:06:32.324Z,6.70
2022-10-27T07:09:01.465Z,6.60
2022-10-27T07:11:30.943Z,6.83
2022-10-27T07:13:58.334Z,6.80
2022-10-27T07:16:25.863Z,6.47
2022-10-27T07:18:53.268Z,6.57
2022-10-27T07:21:20.629Z,6.37
2022-10-27T07:23:48.060Z,6.67
2022-10-27T07:26:15.462Z,6.40
2022-10-27T07:28:42.815Z,6.40
2022-10-27T07:31:10.369Z,6.20
2022-10-27T07:33:37.745Z,5.90
2022-10-27T07:36:05.393Z,5.90
2022-10-27T07:38:33.005Z,6.00
2022-10-27T07:41:00.434Z,5.60
2022-10-27T07:43:27.834Z,5.77
2022-10-27T07:45:55.225Z,5.70
2022-10-27T07:48:22.682Z,5.13
2022-10-27T07:50:52.119Z,5.10
2022-10-27T07:53:19.794Z,4.37
2022-10-27T07:55:47.191Z,4.57
2022-10-27T07:58:16.556Z,4.40
2022-10-27T08:00:46.281Z,4.30
2022-10-27T08:03:16.651Z,4.80
2022-10-27T08:05:44.106Z,4.97
2022-10-27T08:08:12.258Z,4.93
2022-10-27T08:10:41.075Z,6.07
2022-10-27T08:13:10.786Z,7.07
2022-10-27T08:15:39.649Z,8.67
2022-10-27T08:18:07.686Z,8.73
2022-10-27T08:20:39.097Z,10.70
2022-10-27T08:23:10.659Z,11.47
2022-10-27T08:25:38.325Z,10.27
2022-10-27T08:28:06.418Z,12.97
2022-10-27T08:30:40.152Z,14.40
2022-10-27T08:33:10.817Z,14.60
2022-10-27T08:35:38.172Z,16.03
2022-10-27T08:38:08.129Z,15.67
2022-10-27T08:40:41.481Z,15.87
2022-10-27T08:43:30.433Z,16.47
2022-10-27T08:46:23.423Z,15.50
2022-10-27T08:48:55.073Z,16.77
2022-10-27T08:53:58.862Z,17.13
2022-10-27T08:56:35.907Z,16.63
2022-10-27T08:59:04.127Z,16.60
2022-10-27T09:01:44.957Z,17.20
2022-10-27T09:04:44.539Z,17.60
2022-10-27T09:07:35.201Z,16.77
2022-10-27T09:10:11.873Z,16.97
2022-10-27T09:13:16.175Z,15.90
2022-10-27T09:15:47.659Z,15.70
2022-10-27T09:19:30.562Z,15.63
2022-10-27T09:32:33.861Z,15.77
2022-10-27T09:35:04.468Z,15.70
2022-10-27T09:37:33.909Z,15.13
2022-10-27T09:40:01.386Z,15.40
2022-10-27T09:42:28.843Z,15.47
2022-10-27T09:45:01.485Z,13.90
2022-10-27T09:47:35.252Z,14.97
2022-10-27T09:50:06.275Z,14.50
2022-10-27T09:52:42.571Z,13.27
2022-10-27T09:55:11.094Z,13.43
2022-10-27T09:57:40.825Z,12.67
2022-10-27T10:00:24.143Z,12.13
2022-10-27T10:03:19.964Z,11.73
2022-10-27T10:06:02.938Z,12.40
2022-10-27T10:08:35.274Z,13.67
2022-10-27T10:11:18.691Z,13.40
2022-10-27T10:14:04.075Z,14.90
2022-10-27T10:16:33.265Z,14.40
2022-10-27T10:19:16.091Z,13.70
2022-10-27T10:22:00.695Z,13.13
2022-10-27T10:24:31.833Z,13.67
2022-10-27T10:27:02.360Z,13.80
2022-10-27T10:29:39.791Z,13.50
2022-10-27T10:32:14.941Z,13.43
2022-10-27T10:34:43.369Z,13.00
2022-10-27T10:37:34.268Z,13.10
2022-10-27T10:40:13.565Z,12.37
2022-10-27T10:42:46.387Z,11.10
2022-10-27T10:45:26.205Z,10.40
2022-10-27T10:47:59.355Z,11.23
2022-10-27T10:50:28.265Z,9.50
2022-10-27T10:52:58.121Z,9.50
2022-10-27T10:55:38.277Z,9.33
2022-10-27T10:58:05.966Z,9.57
2022-10-27T11:00:35.685Z,9.03
2022-10-27T11:03:18.232Z,9.27
2022-10-27T11:05:54.391Z,10.07
2022-10-27T11:08:25.096Z,9.87
2022-10-27T11:10:55.374Z,10.27
2022-10-27T11:13:48.525Z,10.80
2022-10-27T11:16:16.240Z,9.57
2022-10-27T11:18:54.511Z,10.20
2022-10-27T11:21:21.838Z,10.53
2022-10-27T11:23:55.029Z,10.70
2022-10-27T11:26:28.783Z,10.00
2022-10-27T11:29:10.523Z,10.03
2022-10-27T11:31:42.408Z,10.10
2022-10-27T11:34:40.699Z,10.50
2022-10-27T11:37:38.701Z,10.17
2022-10-27T11:40:15.930Z,10.10
2022-10-27T11:42:53.783Z,10.30
2022-10-27T11:45:26.769Z,9.90
2022-10-27T11:48:07.840Z,9.77
2022-10-27T11:50:45.512Z,9.97
2022-10-27T11:53:13.854Z,10.30
2022-10-27T11:55:57.865Z,10.57
2022-10-27T11:59:02.171Z,9.97
2022-10-27T12:01:37.491Z,10.93
2022-10-27T12:04:47.531Z,10.27
2022-10-27T12:07:33.752Z,10.73
2022-10-27T12:10:21.862Z,10.20
2022-10-27T12:12:54.945Z,10.10
2022-10-27T12:15:30.838Z,11.20
2022-10-27T12:18:28.060Z,9.73
2022-10-27T12:21:14.995Z,10.03
2022-10-27T12:24:13.986Z,10.00
2022-10-27T12:26:55.158Z,9.73
2022-10-27T12:29:24.702Z,10.27
2022-10-27T12:31:57.789Z,9.67
2022-10-27T12:34:39.331Z,8.77
2022-10-27T12:37:19.544Z,10.43
2022-10-27T12:40:16.487Z,9.60
2022-10-27T12:43:06.091Z,9.00
2022-10-27T12:46:04.884Z,9.67
2022-10-27T12:48:45.850Z,9.13
2022-10-27T12:51:31.832Z,8.83
2022-10-27T12:54:44.430Z,9.43
2022-10-27T12:57:20.532Z,9.13
2022-10-27T13:00:02.887Z,9.03
2022-10-27T13:02:37.256Z,9.30
2022-10-27T13:05:20.521Z,9.10
2022-10-27T13:08:06.852Z,8.67
2022-10-27T13:11:07.513Z,9.40
2022-10-27T13:13:40.887Z,9.57
2022-10-27T13:16:34.141Z,9.50
2022-10-27T13:19:20.124Z,8.57
2022-10-27T13:22:07.400Z,8.50
2022-10-27T13:24:34.720Z,8.17
2022-10-27T13:27:19.256Z,8.73
2022-10-27T13:29:53.269Z,8.43
2022-10-27T13:32:23.017Z,8.57
2022-10-27T13:35:02.764Z,8.20
2022-10-27T13:37:47.667Z,7.97
2022-10-27T13:40:17.855Z,7.77
2022-10-27T13:42:53.554Z,7.67
2022-10-27T13:45:26.850Z,7.63
2022-10-27T13:48:12.009Z,7.33
2022-10-27T13:50:41.837Z,8.13
2022-10-27T13:53:15.248Z,8.07
2022-10-27T13:56:00.149Z,7.53
2022-10-27T13:59:05.728Z,7.87
2022-10-27T14:01:44.239Z,7.90
2022-10-27T14:04:21.753Z,8.10
2022-10-27T14:07:00.712Z,7.97
2022-10-27T14:09:33.744Z,7.90
2022-10-27T14:12:19.966Z,8.23
2022-10-27T14:14:54.020Z,8.40
2022-10-27T14:17:26.662Z,7.87
2022-10-27T14:20:05.528Z,8.30
2022-10-27T14:22:32.906Z,8.17
2022-10-27T14:25:11.771Z,8.03
2022-10-27T14:27:39.215Z,7.87
2022-10-27T14:30:34.265Z,8.17
2022-10-27T14:33:17.975Z,8.40
2022-10-27T14:35:45.550Z,9.07
2022-10-27T14:38:19.444Z,8.67
2022-10-27T14:40:48.620Z,8.73
2022-10-27T14:43:25.941Z,8.90
2022-10-27T14:46:00.304Z,8.17
2022-10-27T14:48:33.234Z,8.43
2022-10-27T14:51:10.486Z,8.23
2022-10-27T14:53:38.404Z,8.10
2022-10-27T14:56:13.430Z,9.93
2022-10-27T14:58:40.828Z,10.30
2022-10-27T15:01:35.063Z,10.17
2022-10-27T15:04:26.635Z,10.60
2022-10-27T15:07:02.689Z,11.33
2022-10-27T15:09:36.480Z,11.57
2022-10-27T15:12:20.301Z,12.30
2022-10-27T15:14:48.481Z,11.90
2022-10-27T15:17:20.204Z,12.37
2022-10-27T15:19:52.504Z,11.97
2022-10-27T15:22:20.296Z,12.00
2022-10-27T15:24:48.269Z,11.20
2022-10-27T15:27:16.701Z,11.67
2022-10-27T15:29:46.659Z,11.50
2022-10-27T15:32:27.599Z,10.40
2022-10-27T15:34:55.804Z,9.90
2022-10-27T15:37:32.476Z,9.03
2022-10-27T15:40:26.776Z,8.87
2022-10-27T15:42:55.084Z,7.50
2022-10-27T15:45:30.911Z,7.00
2022-10-27T15:47:59.219Z,7.77
2022-10-27T15:50:36.812Z,7.73
2022-10-27T15:53:20.256Z,7.90
2022-10-27T15:56:05.897Z,7.27
2022-10-27T15:58:39.072Z,7.50
2022-10-27T16:01:08.617Z,7.97
2022-10-27T16:03:58.950Z,8.27
2022-10-27T16:06:27.916Z,8.50
2022-10-27T16:09:00.360Z,8.20
2022-10-27T16:11:45.973Z,8.60
2022-10-27T16:14:17.046Z,9.20
2022-10-27T16:16:46.491Z,8.53
2022-10-27T16:19:17.125Z,8.60
2022-10-27T16:21:44.648Z,9.67
2022-10-27T16:24:20.629Z,8.83
2022-10-27T16:26:49.035Z,9.80
2022-10-27T16:29:27.956Z,10.13
2022-10-27T16:31:55.536Z,9.93
2022-10-27T16:34:25.840Z,10.17
2022-10-27T16:36:54.683Z,10.37
2022-10-27T16:39:22.364Z,9.80
2022-10-27T16:41:50.107Z,11.13
2022-10-27T16:44:18.171Z,12.07
2022-10-27T16:46:46.205Z,12.23
2022-10-27T16:49:13.736Z,11.70
2022-10-27T16:51:41.748Z,11.03
2022-10-27T16:54:09.603Z,10.73
2022-10-27T16:56:49.812Z,11.50
2022-10-27T16:59:17.690Z,11.93
2022-10-27T17:01:45.779Z,12.40
2022-10-27T17:04:14.214Z,12.70
2022-10-27T17:06:41.811Z,11.83
2022-10-27T17:09:09.916Z,12.67
2022-10-27T17:11:38.337Z,12.83
2022-10-27T17:14:06.834Z,12.47
2022-10-27T17:16:35.647Z,13.60
2022-10-27T17:19:04.119Z,11.83
2022-10-27T17:21:33.798Z,11.37
2022-10-27T17:24:02.732Z,12.23
2022-10-27T17:26:33.177Z,11.90
2022-10-27T17:29:01.467Z,12.53
2022-10-27T17:31:29.655Z,11.63
2022-10-27T17:34:01.885Z,13.97
2022-10-27T17:36:30.147Z,13.90
2022-10-27T17:39:00.454Z,14.57
2022-10-27T17:41:28.744Z,14.50
2022-10-27T17:43:56.805Z,13.60
2022-10-27T17:46:25.323Z,13.07
2022-10-27T17:51:32.696Z,14.83
2022-10-27T17:54:04.078Z,15.13
2022-10-27T17:56:36.120Z,15.03
2022-10-27T17:59:15.678Z,15.13
2022-10-27T18:01:48.413Z,15.53
2022-10-27T18:04:17.242Z,16.27
2022-10-27T18:06:45.659Z,15.93
2022-10-27T18:09:14.279Z,16.40
2022-10-27T18:11:43.119Z,17.23
2022-10-27T18:14:16.246Z,17.30
2022-10-27T18:16:44.847Z,17.87
2022-10-27T18:19:15.217Z,16.97
2022-10-27T18:21:46.128Z,16.70
2022-10-27T18:24:16.245Z,17.10
2022-10-27T18:26:48.606Z,17.07
2022-10-27T18:29:19.755Z,17.30
2022-10-27T18:31:50.784Z,16.47
2022-10-27T18:34:20.443Z,16.97
2022-10-27T18:36:49.263Z,17.23
2022-10-27T18:39:20.029Z,17.83
2022-10-27T18:41:49.516Z,17.30
2022-10-27T18:44:18.011Z,17.20
2022-10-27T18:46:46.274Z,20.10
2022-10-27T18:49:16.231Z,24.43
2022-10-27T18:51:48.686Z,24.13
2022-10-27T18:54:16.754Z,22.00
2022-10-27T18:56:45.178Z,21.53
2022-10-27T18:59:13.716Z,21.90
2022-10-27T19:01:43.961Z,21.00
2022-10-27T19:04:14.824Z,21.37
2022-10-27T19:06:44.260Z,20.93
2022-10-27T19:09:14.599Z,20.07
2022-10-27T19:11:42.395Z,20.17
2022-10-27T19:14:10.758Z,20.00
2022-10-27T19:16:39.315Z,19.70
2022-10-27T19:19:07.238Z,19.43
2022-10-27T19:21:35.229Z,19.40
2022-10-27T19:24:03.527Z,20.43
2022-10-27T19:26:34.061Z,20.80
2022-10-27T19:29:05.894Z,20.97
2022-10-27T19:31:38.743Z,20.13
2022-10-27T19:36:41.922Z,21.77
2022-10-27T19:39:12.290Z,23.23
2022-10-27T19:41:41.729Z,22.37
2022-10-27T19:44:12.524Z,24.67
2022-10-27T19:46:40.677Z,27.17
2022-10-27T19:49:13.428Z,29.80
2022-10-27T19:51:41.859Z,31.23
2022-10-27T19:54:15.142Z,32.17
2022-10-27T19:56:48.341Z,32.40
2022-10-27T19:59:20.000Z,32.33
2022-10-27T20:01:51.933Z,33.17
2022-10-27T20:04:21.818Z,32.63
2022-10-27T20:06:51.756Z,34.10
2022-10-27T20:09:21.717Z,32.23
2022-10-27T20:11:50.946Z,32.30
2022-10-27T20:14:19.829Z,32.37
2022-10-27T20:16:48.570Z,33.07
2022-10-27T20:19:22.590Z,33.63
2022-10-27T20:21:50.543Z,34.37
2022-10-27T20:24:20.870Z,33.63
2022-10-27T20:29:25.702Z,31.43
2022-10-27T20:31:56.912Z,32.80
2022-10-27T20:34:25.944Z,33.30
2022-10-27T20:36:53.602Z,32.37
2022-10-27T20:39:24.284Z,35.57
2022-10-27T20:41:52.125Z,35.93
2022-10-27T20:44:19.950Z,34.43
2022-10-27T20:46:50.877Z,37.50
2022-10-27T20:49:18.471Z,36.43
2022-10-27T20:51:46.133Z,34.23
2022-10-27T20:54:13.970Z,33.70
2022-10-27T20:56:41.545Z,32.23
2022-10-27T20:59:09.059Z,31.80
2022-10-27T21:01:39.485Z,32.33
2022-10-27T21:04:09.424Z,33.03
2022-10-27T21:06:39.509Z,34.13
2022-10-27T21:09:09.507Z,33.50
2022-10-27T21:11:37.937Z,34.37
2022-10-27T21:14:06.588Z,34.00
2022-10-27T21:16:34.529Z,34.43
2022-10-27T21:19:04.837Z,33.17
2022-10-27T21:21:33.154Z,34.20
2022-10-27T21:24:02.041Z,33.40
2022-10-27T21:26:30.303Z,33.47
2022-10-27T21:28:59.024Z,35.87
2022-10-27T21:31:31.240Z,35.13
2022-10-27T21:34:04.393Z,33.97
2022-10-27T21:36:31.963Z,33.47
2022-10-27T21:39:00.093Z,34.43
2022-10-27T21:41:27.542Z,33.87
2022-10-27T21:43:56.402Z,34.73
2022-10-27T21:46:28.149Z,33.33
2022-10-27T21:48:57.706Z,32.90
2022-10-27T21:51:25.788Z,32.63
2022-10-27T21:54:01.796Z,32.60
2022-10-27T21:56:31.265Z,32.63
2022-10-27T21:58:59.370Z,32.00
2022-10-27T22:01:27.513Z,32.10
2022-10-27T22:03:55.037Z,32.57
2022-10-27T22:06:33.148Z,32.57
2022-10-27T22:09:01.497Z,33.03
2022-10-27T22:11:32.237Z,31.67
2022-10-27T22:13:59.630Z,32.70
2022-10-27T22:16:28.914Z,31.70
2022-10-27T22:18:59.230Z,33.87
2022-10-27T22:21:29.012Z,33.00
2022-10-27T22:23:56.761Z,32.57
2022-10-27T22:26:24.455Z,31.93
2022-10-27T22:28:52.206Z,31.63
2022-10-27T22:31:27.231Z,33.40
2022-10-27T22:33:55.293Z,31.00
2022-10-27T22:36:23.972Z,30.53
2022-10-27T22:38:53.860Z,31.30
2022-10-27T22:41:22.314Z,29.83
2022-10-27T22:43:50.159Z,31.23
2022-10-27T22:46:23.681Z,31.13
2022-10-27T22:48:51.788Z,29.73
2022-10-27T22:51:21.555Z,27.33
2022-10-27T22:53:49.603Z,26.50
2022-10-27T22:56:28.569Z,28.83
2022-10-27T22:58:59.101Z,27.17
2022-10-27T23:01:30.214Z,27.10
2022-10-27T23:04:00.252Z,27.07
2022-10-27T23:06:30.724Z,28.17
2022-10-27T23:09:00.871Z,28.03
2022-10-27T23:11:35.399Z,28.23
2022-10-27T23:14:04.458Z,27.40
2022-10-27T23:16:33.088Z,27.77
2022-10-27T23:19:01.294Z,27.83
2022-10-27T23:21:29.819Z,28.20
2022-10-27T23:23:59.197Z,26.43
2022-10-27T23:26:32.367Z,27.20
2022-10-27T23:29:01.983Z,26.30
2022-10-27T23:31:30.576Z,26.00
2022-10-27T23:34:00.522Z,26.93
2022-10-27T23:36:30.059Z,25.47
2022-10-27T23:38:58.086Z,26.00
2022-10-27T23:41:25.710Z,26.27
2022-10-27T23:43:55.349Z,25.97
2022-10-27T23:46:24.467Z,25.33
2022-10-27T23:48:55.109Z,26.10
2022-10-27T23:51:23.164Z,25.10
2022-10-27T23:53:51.501Z,24.63
2022-10-27T23:56:19.307Z,24.57
2022-10-27T23:58:47.225Z,26.27
